sensor_id;sensor_type;location;lat;lon;timestamp;pressure;altitude;pressure_sealevel;temperature;humidity
44934;BME280;30667;43.614;1.442;2024-02-14T00:00:10;100770.28;;;8.56;100.00
44934;BME280;30667;43.614;1.442;2024-02-14T00:02:40;100769.44;;;8.55;100.00
44934;BME280;30667;43.614;1.442;2024-02-14T00:05:06;100773.94;;;8.49;100.00
44934;BME280;30667;43.614;1.442;2024-02-14T00:07:32;100775.84;;;8.49;100.00
44934;BME280;30667;43.614;1.442;2024-02-14T00:09:57;100778.63;;;8.54;100.00
44934;BME280;30667;43.614;1.442;2024-02-14T00:12:23;100778.03;;;8.52;100.00
44934;BME280;30667;43.614;1.442;2024-02-14T00:14:49;100779.09;;;8.51;100.00
44934;BME280;30667;43.614;1.442;2024-02-14T00:17:15;100792.50;;;8.46;100.00
44934;BME280;30667;43.614;1.442;2024-02-14T00:19:40;100794.13;;;8.47;100.00
44934;BME280;30667;43.614;1.442;2024-02-14T00:22:06;100797.31;;;8.44;100.00
44934;BME280;30667;43.614;1.442;2024-02-14T00:24:31;100792.38;;;8.41;100.00
44934;BME280;30667;43.614;1.442;2024-02-14T00:26:57;100803.63;;;8.37;100.00
44934;BME280;30667;43.614;1.442;2024-02-14T00:29:23;100802.75;;;8.32;100.00
44934;BME280;30667;43.614;1.442;2024-02-14T00:31:49;100808.38;;;8.30;100.00
44934;BME280;30667;43.614;1.442;2024-02-14T00:34:15;100821.78;;;8.25;100.00
44934;BME280;30667;43.614;1.442;2024-02-14T00:36:40;100829.88;;;8.25;100.00
44934;BME280;30667;43.614;1.442;2024-02-14T00:39:05;100824.47;;;8.25;100.00
44934;BME280;30667;43.614;1.442;2024-02-14T00:41:34;100816.38;;;8.25;100.00
44934;BME280;30667;43.614;1.442;2024-02-14T00:44:01;100809.59;;;8.23;100.00
44934;BME280;30667;43.614;1.442;2024-02-14T00:46:26;100808.78;;;8.22;100.00
44934;BME280;30667;43.614;1.442;2024-02-14T00:48:52;100805.16;;;8.16;100.00
44934;BME280;30667;43.614;1.442;2024-02-14T00:51:19;100804.84;;;8.13;100.00
44934;BME280;30667;43.614;1.442;2024-02-14T00:53:44;100798.16;;;8.15;100.00
44934;BME280;30667;43.614;1.442;2024-02-14T00:56:10;100798.53;;;8.07;100.00
44934;BME280;30667;43.614;1.442;2024-02-14T00:58:36;100802.78;;;8.03;100.00
44934;BME280;30667;43.614;1.442;2024-02-14T01:01:01;100792.72;;;7.98;100.00
44934;BME280;30667;43.614;1.442;2024-02-14T01:03:26;100790.50;;;7.95;100.00
44934;BME280;30667;43.614;1.442;2024-02-14T01:05:52;100797.69;;;7.90;100.00
44934;BME280;30667;43.614;1.442;2024-02-14T01:08:17;100809.50;;;7.89;100.00
44934;BME280;30667;43.614;1.442;2024-02-14T01:10:43;100803.88;;;7.90;100.00
44934;BME280;30667;43.614;1.442;2024-02-14T01:13:08;100799.44;;;7.84;100.00
44934;BME280;30667;43.614;1.442;2024-02-14T01:15:34;100798.41;;;7.85;100.00
44934;BME280;30667;43.614;1.442;2024-02-14T01:17:59;100801.81;;;7.80;100.00
44934;BME280;30667;43.614;1.442;2024-02-14T01:20:25;100794.78;;;7.79;100.00
44934;BME280;30667;43.614;1.442;2024-02-14T01:22:50;100780.75;;;7.77;100.00
44934;BME280;30667;43.614;1.442;2024-02-14T01:25:16;100779.66;;;7.78;100.00
44934;BME280;30667;43.614;1.442;2024-02-14T01:27:41;100787.03;;;7.83;100.00
44934;BME280;30667;43.614;1.442;2024-02-14T01:30:08;100783.84;;;7.86;100.00
44934;BME280;30667;43.614;1.442;2024-02-14T01:32:34;100774.00;;;7.92;100.00
44934;BME280;30667;43.614;1.442;2024-02-14T01:34:59;100772.03;;;7.87;100.00
44934;BME280;30667;43.614;1.442;2024-02-14T01:37:26;100772.38;;;7.91;100.00
44934;BME280;30667;43.614;1.442;2024-02-14T01:39:52;100763.63;;;8.00;100.00
44934;BME280;30667;43.614;1.442;2024-02-14T01:42:17;100760.72;;;8.02;100.00
44934;BME280;30667;43.614;1.442;2024-02-14T01:44:42;100759.66;;;8.03;100.00
44934;BME280;30667;43.614;1.442;2024-02-14T01:47:10;100770.91;;;8.00;100.00
44934;BME280;30667;43.614;1.442;2024-02-14T01:49:36;100768.06;;;7.90;100.00
44934;BME280;30667;43.614;1.442;2024-02-14T01:52:03;100773.69;;;7.88;100.00
44934;BME280;30667;43.614;1.442;2024-02-14T01:54:33;100775.38;;;7.94;100.00
44934;BME280;30667;43.614;1.442;2024-02-14T01:57:00;100775.88;;;7.91;100.00
44934;BME280;30667;43.614;1.442;2024-02-14T01:59:26;100779.16;;;7.93;100.00
44934;BME280;30667;43.614;1.442;2024-02-14T02:01:52;100776.94;;;7.90;100.00
44934;BME280;30667;43.614;1.442;2024-02-14T02:04:18;100782.09;;;7.92;100.00
44934;BME280;30667;43.614;1.442;2024-02-14T02:06:44;100784.22;;;7.90;100.00
44934;BME280;30667;43.614;1.442;2024-02-14T02:09:10;100777.19;;;7.89;100.00
44934;BME280;30667;43.614;1.442;2024-02-14T02:11:52;100776.63;;;7.87;100.00
44934;BME280;30667;43.614;1.442;2024-02-14T02:14:21;100778.72;;;7.85;100.00
44934;BME280;30667;43.614;1.442;2024-02-14T02:16:47;100774.50;;;7.77;100.00
44934;BME280;30667;43.614;1.442;2024-02-14T02:19:13;100769.88;;;7.72;100.00
44934;BME280;30667;43.614;1.442;2024-02-14T02:21:41;100770.22;;;7.64;100.00
44934;BME280;30667;43.614;1.442;2024-02-14T02:24:07;100765.69;;;7.64;100.00
44934;BME280;30667;43.614;1.442;2024-02-14T02:26:33;100762.50;;;7.68;100.00
44934;BME280;30667;43.614;1.442;2024-02-14T02:28:58;100767.41;;;7.71;100.00
44934;BME280;30667;43.614;1.442;2024-02-14T02:31:24;100759.34;;;7.71;100.00
44934;BME280;30667;43.614;1.442;2024-02-14T02:33:50;100756.28;;;7.67;100.00
44934;BME280;30667;43.614;1.442;2024-02-14T02:36:16;100765.09;;;7.62;100.00
44934;BME280;30667;43.614;1.442;2024-02-14T02:38:41;100764.84;;;7.64;100.00
44934;BME280;30667;43.614;1.442;2024-02-14T02:41:07;100765.69;;;7.64;100.00
44934;BME280;30667;43.614;1.442;2024-02-14T02:43:33;100757.00;;;7.62;100.00
44934;BME280;30667;43.614;1.442;2024-02-14T02:45:58;100749.16;;;7.61;100.00
44934;BME280;30667;43.614;1.442;2024-02-14T02:48:24;100753.66;;;7.55;100.00
44934;BME280;30667;43.614;1.442;2024-02-14T02:50:50;100755.38;;;7.61;100.00
44934;BME280;30667;43.614;1.442;2024-02-14T02:53:16;100761.59;;;7.62;100.00
44934;BME280;30667;43.614;1.442;2024-02-14T02:55:42;100765.31;;;7.61;100.00
44934;BME280;30667;43.614;1.442;2024-02-14T02:58:07;100766.41;;;7.60;100.00
44934;BME280;30667;43.614;1.442;2024-02-14T03:00:33;100770.03;;;7.54;100.00
44934;BME280;30667;43.614;1.442;2024-02-14T03:02:59;100771.09;;;7.53;100.00
44934;BME280;30667;43.614;1.442;2024-02-14T03:05:25;100771.81;;;7.48;100.00
44934;BME280;30667;43.614;1.442;2024-02-14T03:07:50;100764.81;;;7.47;100.00
44934;BME280;30667;43.614;1.442;2024-02-14T03:10:17;100758.69;;;7.52;100.00
44934;BME280;30667;43.614;1.442;2024-02-14T03:12:49;100761.03;;;7.48;100.00
44934;BME280;30667;43.614;1.442;2024-02-14T03:15:15;100760.59;;;7.39;100.00
44934;BME280;30667;43.614;1.442;2024-02-14T03:17:41;100760.38;;;7.41;100.00
44934;BME280;30667;43.614;1.442;2024-02-14T03:20:08;100756.34;;;7.43;100.00
44934;BME280;30667;43.614;1.442;2024-02-14T03:22:39;100748.19;;;7.38;100.00
44934;BME280;30667;43.614;1.442;2024-02-14T03:25:08;100744.22;;;7.41;100.00
44934;BME280;30667;43.614;1.442;2024-02-14T03:27:34;100748.78;;;7.40;100.00
44934;BME280;30667;43.614;1.442;2024-02-14T03:30:00;100741.50;;;7.41;100.00
44934;BME280;30667;43.614;1.442;2024-02-14T03:32:28;100743.03;;;7.37;100.00
44934;BME280;30667;43.614;1.442;2024-02-14T03:34:54;100742.13;;;7.31;100.00
44934;BME280;30667;43.614;1.442;2024-02-14T03:37:19;100741.28;;;7.31;100.00
44934;BME280;30667;43.614;1.442;2024-02-14T03:39:44;100735.66;;;7.32;100.00
44934;BME280;30667;43.614;1.442;2024-02-14T03:42:11;100735.66;;;7.32;100.00
44934;BME280;30667;43.614;1.442;2024-02-14T03:44:36;100731.59;;;7.30;100.00
44934;BME280;30667;43.614;1.442;2024-02-14T03:47:03;100733.34;;;7.24;100.00
44934;BME280;30667;43.614;1.442;2024-02-14T03:49:29;100732.53;;;7.23;100.00
44934;BME280;30667;43.614;1.442;2024-02-14T03:51:56;100740.84;;;7.22;100.00
44934;BME280;30667;43.614;1.442;2024-02-14T03:54:21;100728.47;;;7.09;100.00
44934;BME280;30667;43.614;1.442;2024-02-14T03:56:47;100731.53;;;7.01;100.00
44934;BME280;30667;43.614;1.442;2024-02-14T03:59:12;100735.97;;;7.07;100.00
44934;BME280;30667;43.614;1.442;2024-02-14T04:01:37;100737.25;;;7.04;100.00
44934;BME280;30667;43.614;1.442;2024-02-14T04:04:03;100721.59;;;7.01;100.00
44934;BME280;30667;43.614;1.442;2024-02-14T04:06:29;100717.00;;;7.02;100.00
44934;BME280;30667;43.614;1.442;2024-02-14T04:08:57;100718.44;;;7.04;100.00
44934;BME280;30667;43.614;1.442;2024-02-14T04:11:24;100717.47;;;7.11;100.00
44934;BME280;30667;43.614;1.442;2024-02-14T04:13:49;100719.69;;;7.14;100.00
44934;BME280;30667;43.614;1.442;2024-02-14T04:16:19;100722.16;;;7.15;100.00
44934;BME280;30667;43.614;1.442;2024-02-14T04:18:44;100727.41;;;7.22;100.00
44934;BME280;30667;43.614;1.442;2024-02-14T04:21:09;100721.31;;;7.15;100.00
44934;BME280;30667;43.614;1.442;2024-02-14T04:23:35;100731.03;;;7.16;100.00
44934;BME280;30667;43.614;1.442;2024-02-14T04:26:00;100730.22;;;7.15;100.00
44934;BME280;30667;43.614;1.442;2024-02-14T04:28:25;100736.56;;;7.09;100.00
44934;BME280;30667;43.614;1.442;2024-02-14T04:30:51;100740.66;;;7.12;100.00
44934;BME280;30667;43.614;1.442;2024-02-14T04:33:18;100743.81;;;7.08;100.00
44934;BME280;30667;43.614;1.442;2024-02-14T04:35:43;100737.84;;;7.06;100.00
44934;BME280;30667;43.614;1.442;2024-02-14T04:38:09;100742.06;;;7.02;100.00
44934;BME280;30667;43.614;1.442;2024-02-14T04:40:34;100743.25;;;6.95;100.00
44934;BME280;30667;43.614;1.442;2024-02-14T04:43:00;100743.25;;;6.95;100.00
44934;BME280;30667;43.614;1.442;2024-02-14T04:45:25;100747.09;;;6.87;100.00
44934;BME280;30667;43.614;1.442;2024-02-14T04:47:51;100742.44;;;6.82;100.00
44934;BME280;30667;43.614;1.442;2024-02-14T04:50:17;100745.81;;;6.89;100.00
44934;BME280;30667;43.614;1.442;2024-02-14T04:52:44;100748.97;;;6.86;100.00
44934;BME280;30667;43.614;1.442;2024-02-14T04:55:09;100750.97;;;6.91;100.00
44934;BME280;30667;43.614;1.442;2024-02-14T04:57:35;100742.06;;;6.90;100.00
44934;BME280;30667;43.614;1.442;2024-02-14T05:00:02;100742.75;;;6.86;100.00
44934;BME280;30667;43.614;1.442;2024-02-14T05:02:29;100749.69;;;6.82;100.00
44934;BME280;30667;43.614;1.442;2024-02-14T05:04:55;100750.38;;;6.89;100.00
44934;BME280;30667;43.614;1.442;2024-02-14T05:07:20;100747.91;;;6.87;100.00
44934;BME280;30667;43.614;1.442;2024-02-14T05:09:46;100754.38;;;6.86;100.00
44934;BME280;30667;43.614;1.442;2024-02-14T05:12:13;100756.94;;;6.81;100.00
44934;BME280;30667;43.614;1.442;2024-02-14T05:14:38;100752.94;;;6.84;100.00
44934;BME280;30667;43.614;1.442;2024-02-14T05:17:06;100749.56;;;6.88;100.00
44934;BME280;30667;43.614;1.442;2024-02-14T05:19:31;100757.63;;;6.88;100.00
44934;BME280;30667;43.614;1.442;2024-02-14T05:21:58;100756.59;;;6.89;100.00
44934;BME280;30667;43.614;1.442;2024-02-14T05:24:23;100744.75;;;6.90;100.00
44934;BME280;30667;43.614;1.442;2024-02-14T05:26:52;100752.00;;;6.90;100.00
44934;BME280;30667;43.614;1.442;2024-02-14T05:29:17;100750.03;;;6.85;100.00
44934;BME280;30667;43.614;1.442;2024-02-14T05:31:46;100750.97;;;6.79;100.00
44934;BME280;30667;43.614;1.442;2024-02-14T05:34:14;100754.25;;;6.81;100.00
44934;BME280;30667;43.614;1.442;2024-02-14T05:36:39;100760.34;;;6.77;100.00
44934;BME280;30667;43.614;1.442;2024-02-14T05:39:05;100760.91;;;6.79;100.00
44934;BME280;30667;43.614;1.442;2024-02-14T05:41:34;100757.88;;;6.75;100.00
44934;BME280;30667;43.614;1.442;2024-02-14T05:44:00;100759.63;;;6.69;100.00
44934;BME280;30667;43.614;1.442;2024-02-14T05:46:25;100754.00;;;6.71;100.00
44934;BME280;30667;43.614;1.442;2024-02-14T05:48:51;100750.97;;;6.67;100.00
44934;BME280;30667;43.614;1.442;2024-02-14T05:51:20;100759.97;;;6.61;100.00
44934;BME280;30667;43.614;1.442;2024-02-14T05:53:46;100748.03;;;6.57;100.00
44934;BME280;30667;43.614;1.442;2024-02-14T05:56:11;100752.47;;;6.51;100.00
44934;BME280;30667;43.614;1.442;2024-02-14T05:58:36;100754.59;;;6.49;100.00
44934;BME280;30667;43.614;1.442;2024-02-14T06:01:02;100752.38;;;6.46;100.00
44934;BME280;30667;43.614;1.442;2024-02-14T06:03:27;100753.28;;;6.40;100.00
44934;BME280;30667;43.614;1.442;2024-02-14T06:05:53;100746.38;;;6.44;100.00
44934;BME280;30667;43.614;1.442;2024-02-14T06:08:20;100756.56;;;6.42;100.00
44934;BME280;30667;43.614;1.442;2024-02-14T06:10:45;100753.53;;;6.39;100.00
44934;BME280;30667;43.614;1.442;2024-02-14T06:13:11;100765.06;;;6.39;100.00
44934;BME280;30667;43.614;1.442;2024-02-14T06:15:36;100769.59;;;6.27;100.00
44934;BME280;30667;43.614;1.442;2024-02-14T06:18:01;100769.16;;;6.30;100.00
44934;BME280;30667;43.614;1.442;2024-02-14T06:20:27;100768.91;;;6.31;100.00
44934;BME280;30667;43.614;1.442;2024-02-14T06:22:52;100773.03;;;6.34;100.00
44934;BME280;30667;43.614;1.442;2024-02-14T06:25:18;100784.22;;;6.31;100.00
44934;BME280;30667;43.614;1.442;2024-02-14T06:27:43;100789.38;;;6.32;100.00
44934;BME280;30667;43.614;1.442;2024-02-14T06:30:09;100789.25;;;6.27;100.00
44934;BME280;30667;43.614;1.442;2024-02-14T06:32:35;100793.53;;;6.16;100.00
44934;BME280;30667;43.614;1.442;2024-02-14T06:35:02;100792.00;;;6.21;100.00
44934;BME280;30667;43.614;1.442;2024-02-14T06:37:27;100798.56;;;6.13;100.00
44934;BME280;30667;43.614;1.442;2024-02-14T06:39:53;100791.53;;;6.12;100.00
44934;BME280;30667;43.614;1.442;2024-02-14T06:42:19;100799.50;;;6.18;100.00
44934;BME280;30667;43.614;1.442;2024-02-14T06:44:45;100799.72;;;6.17;100.00
44934;BME280;30667;43.614;1.442;2024-02-14T06:47:10;100800.56;;;6.17;100.00
44934;BME280;30667;43.614;1.442;2024-02-14T06:49:35;100800.56;;;6.17;100.00
44934;BME280;30667;43.614;1.442;2024-02-14T06:52:01;100802.88;;;6.14;100.00
44934;BME280;30667;43.614;1.442;2024-02-14T06:54:26;100806.16;;;6.16;100.00
44934;BME280;30667;43.614;1.442;2024-02-14T06:56:51;100804.28;;;6.16;100.00
44934;BME280;30667;43.614;1.442;2024-02-14T06:59:17;100805.63;;;6.38;100.00
44934;BME280;30667;43.614;1.442;2024-02-14T07:01:42;100803.59;;;6.21;100.00
44934;BME280;30667;43.614;1.442;2024-02-14T07:07:43;100810.56;;;6.10;100.00
44934;BME280;30667;43.614;1.442;2024-02-14T07:10:08;100814.22;;;6.16;100.00
44934;BME280;30667;43.614;1.442;2024-02-14T07:12:34;100824.22;;;6.09;100.00
44934;BME280;30667;43.614;1.442;2024-02-14T07:15:02;100821.78;;;6.07;100.00
44934;BME280;30667;43.614;1.442;2024-02-14T07:17:29;100815.69;;;6.00;100.00
44934;BME280;30667;43.614;1.442;2024-02-14T07:19:54;100817.59;;;6.11;100.00
44934;BME280;30667;43.614;1.442;2024-02-14T07:22:20;100823.09;;;6.16;100.00
44934;BME280;30667;43.614;1.442;2024-02-14T07:24:45;100825.19;;;6.14;100.00
44934;BME280;30667;43.614;1.442;2024-02-14T07:27:14;100825.91;;;6.22;100.00
44934;BME280;30667;43.614;1.442;2024-02-14T07:29:40;100820.53;;;6.22;100.00
44934;BME280;30667;43.614;1.442;2024-02-14T07:32:05;100824.13;;;6.15;100.00
44934;BME280;30667;43.614;1.442;2024-02-14T07:34:34;100828.13;;;6.13;100.00
44934;BME280;30667;43.614;1.442;2024-02-14T07:36:59;100835.25;;;6.19;100.00
44934;BME280;30667;43.614;1.442;2024-02-14T07:39:25;100826.66;;;6.29;100.00
44934;BME280;30667;43.614;1.442;2024-02-14T07:41:51;100822.22;;;6.34;100.00
44934;BME280;30667;43.614;1.442;2024-02-14T07:44:17;100818.94;;;6.32;100.00
44934;BME280;30667;43.614;1.442;2024-02-14T07:46:42;100821.53;;;6.39;100.00
44934;BME280;30667;43.614;1.442;2024-02-14T07:49:08;100829.13;;;6.42;100.00
44934;BME280;30667;43.614;1.442;2024-02-14T07:51:35;100838.97;;;6.48;100.00
44934;BME280;30667;43.614;1.442;2024-02-14T07:54:03;100853.34;;;6.54;100.00
44934;BME280;30667;43.614;1.442;2024-02-14T07:56:29;100848.13;;;6.59;100.00
44934;BME280;30667;43.614;1.442;2024-02-14T07:58:55;100856.06;;;6.66;100.00
44934;BME280;30667;43.614;1.442;2024-02-14T08:01:20;100850.69;;;6.66;100.00
44934;BME280;30667;43.614;1.442;2024-02-14T08:03:45;100856.44;;;6.69;100.00
44934;BME280;30667;43.614;1.442;2024-02-14T08:06:11;100853.50;;;6.71;100.00
44934;BME280;30667;43.614;1.442;2024-02-14T08:08:37;100852.13;;;6.80;100.00
44934;BME280;30667;43.614;1.442;2024-02-14T08:11:02;100851.66;;;6.83;100.00
44934;BME280;30667;43.614;1.442;2024-02-14T08:13:28;100856.13;;;6.89;100.00
44934;BME280;30667;43.614;1.442;2024-02-14T08:15:54;100857.88;;;6.96;100.00
44934;BME280;30667;43.614;1.442;2024-02-14T08:18:19;100861.75;;;7.12;100.00
44934;BME280;30667;43.614;1.442;2024-02-14T08:20:44;100864.31;;;7.18;100.00
44934;BME280;30667;43.614;1.442;2024-02-14T08:23:10;100863.03;;;7.09;100.00
44934;BME280;30667;43.614;1.442;2024-02-14T08:25:35;100864.78;;;7.15;100.00
44934;BME280;30667;43.614;1.442;2024-02-14T08:28:01;100860.78;;;7.18;100.00
44934;BME280;30667;43.614;1.442;2024-02-14T08:30:26;100860.56;;;7.19;100.00
44934;BME280;30667;43.614;1.442;2024-02-14T08:32:52;100861.63;;;7.18;100.00
44934;BME280;30667;43.614;1.442;2024-02-14T08:35:18;100860.56;;;7.19;100.00
44934;BME280;30667;43.614;1.442;2024-02-14T08:37:43;100852.47;;;7.19;100.00
44934;BME280;30667;43.614;1.442;2024-02-14T08:40:09;100850.97;;;7.23;100.00
44934;BME280;30667;43.614;1.442;2024-02-14T08:42:37;100843.47;;;7.25;100.00
44934;BME280;30667;43.614;1.442;2024-02-14T08:45:04;100841.38;;;7.39;100.00
44934;BME280;30667;43.614;1.442;2024-02-14T08:47:29;100843.81;;;7.41;100.00
44934;BME280;30667;43.614;1.442;2024-02-14T08:49:56;100854.22;;;7.49;100.00
44934;BME280;30667;43.614;1.442;2024-02-14T08:52:21;100848.72;;;7.56;100.00
44934;BME280;30667;43.614;1.442;2024-02-14T08:54:46;100847.28;;;7.65;100.00
44934;BME280;30667;43.614;1.442;2024-02-14T08:57:12;100857.59;;;7.68;100.00
44934;BME280;30667;43.614;1.442;2024-02-14T08:59:37;100853.38;;;7.72;100.00
44934;BME280;30667;43.614;1.442;2024-02-14T09:02:03;100860.16;;;7.75;100.00
44934;BME280;30667;43.614;1.442;2024-02-14T09:04:28;100853.94;;;7.74;100.00
44934;BME280;30667;43.614;1.442;2024-02-14T09:06:54;100850.53;;;7.79;100.00
44934;BME280;30667;43.614;1.442;2024-02-14T09:09:19;100853.00;;;7.80;100.00
44934;BME280;30667;43.614;1.442;2024-02-14T09:11:45;100848.03;;;7.89;100.00
44934;BME280;30667;43.614;1.442;2024-02-14T09:14:12;100852.25;;;7.97;100.00
44934;BME280;30667;43.614;1.442;2024-02-14T09:16:37;100844.97;;;7.97;100.00
44934;BME280;30667;43.614;1.442;2024-02-14T09:19:04;100844.56;;;8.06;100.00
44934;BME280;30667;43.614;1.442;2024-02-14T09:21:32;100842.00;;;8.11;100.00
44934;BME280;30667;43.614;1.442;2024-02-14T09:23:59;100842.09;;;8.16;100.00
44934;BME280;30667;43.614;1.442;2024-02-14T09:26:25;100839.50;;;8.21;100.00
44934;BME280;30667;43.614;1.442;2024-02-14T09:28:51;100830.69;;;8.26;100.00
44934;BME280;30667;43.614;1.442;2024-02-14T09:31:19;100829.22;;;8.35;100.00
44934;BME280;30667;43.614;1.442;2024-02-14T09:33:48;100834.47;;;8.42;100.00
44934;BME280;30667;43.614;1.442;2024-02-14T09:36:15;100831.88;;;8.47;100.00
44934;BME280;30667;43.614;1.442;2024-02-14T09:38:40;100836.94;;;8.43;100.00
44934;BME280;30667;43.614;1.442;2024-02-14T09:41:17;100833.69;;;8.58;100.00
44934;BME280;30667;43.614;1.442;2024-02-14T09:43:46;100830.94;;;8.70;100.00
44934;BME280;30667;43.614;1.442;2024-02-14T09:46:13;100828.56;;;8.73;100.00
44934;BME280;30667;43.614;1.442;2024-02-14T09:48:40;100829.97;;;8.76;100.00
44934;BME280;30667;43.614;1.442;2024-02-14T09:51:07;100821.19;;;8.86;100.00
44934;BME280;30667;43.614;1.442;2024-02-14T09:53:33;100825.28;;;8.88;100.00
44934;BME280;30667;43.614;1.442;2024-02-14T09:56:01;100820.84;;;8.99;100.00
44934;BME280;30667;43.614;1.442;2024-02-14T09:58:27;100818.63;;;9.13;100.00
44934;BME280;30667;43.614;1.442;2024-02-14T10:00:59;100820.16;;;9.26;100.00
44934;BME280;30667;43.614;1.442;2024-02-14T10:03:25;100818.09;;;9.33;100.00
44934;BME280;30667;43.614;1.442;2024-02-14T10:05:51;100817.25;;;9.50;100.00
44934;BME280;30667;43.614;1.442;2024-02-14T10:08:18;100812.16;;;9.53;100.00
44934;BME280;30667;43.614;1.442;2024-02-14T10:10:44;100817.91;;;9.62;100.00
44934;BME280;30667;43.614;1.442;2024-02-14T10:13:09;100816.47;;;9.76;100.00
44934;BME280;30667;43.614;1.442;2024-02-14T10:15:35;100820.56;;;9.79;100.00
44934;BME280;30667;43.614;1.442;2024-02-14T10:18:01;100814.41;;;9.84;100.00
44934;BME280;30667;43.614;1.442;2024-02-14T10:20:28;100816.09;;;9.90;100.00
44934;BME280;30667;43.614;1.442;2024-02-14T10:23:04;100806.22;;;10.00;100.00
44934;BME280;30667;43.614;1.442;2024-02-14T10:25:30;100802.84;;;10.15;100.00
44934;BME280;30667;43.614;1.442;2024-02-14T10:27:56;100799.38;;;10.20;100.00
44934;BME280;30667;43.614;1.442;2024-02-14T10:30:22;100804.00;;;10.25;100.00
44934;BME280;30667;43.614;1.442;2024-02-14T10:32:48;100806.47;;;10.26;100.00
44934;BME280;30667;43.614;1.442;2024-02-14T10:35:15;100808.19;;;10.32;100.00
44934;BME280;30667;43.614;1.442;2024-02-14T10:37:41;100809.53;;;10.35;100.00
44934;BME280;30667;43.614;1.442;2024-02-14T10:40:08;100806.72;;;10.52;100.00
44934;BME280;30667;43.614;1.442;2024-02-14T10:42:36;100809.97;;;10.54;100.00
44934;BME280;30667;43.614;1.442;2024-02-14T10:45:02;100800.03;;;10.60;100.00
44934;BME280;30667;43.614;1.442;2024-02-14T10:47:35;100799.31;;;10.75;100.00
44934;BME280;30667;43.614;1.442;2024-02-14T10:50:06;100799.09;;;10.81;100.00
44934;BME280;30667;43.614;1.442;2024-02-14T10:52:34;100801.63;;;10.93;100.00
44934;BME280;30667;43.614;1.442;2024-02-14T10:55:02;100800.00;;;10.97;100.00
44934;BME280;30667;43.614;1.442;2024-02-14T10:57:29;100806.03;;;11.04;100.00
44934;BME280;30667;43.614;1.442;2024-02-14T10:59:55;100797.16;;;11.14;100.00
44934;BME280;30667;43.614;1.442;2024-02-14T11:02:23;100797.16;;;11.19;100.00
44934;BME280;30667;43.614;1.442;2024-02-14T11:04:49;100795.25;;;11.20;100.00
44934;BME280;30667;43.614;1.442;2024-02-14T11:07:20;100793.16;;;11.27;100.00
44934;BME280;30667;43.614;1.442;2024-02-14T11:09:45;100796.94;;;11.31;100.00
44934;BME280;30667;43.614;1.442;2024-02-14T11:12:11;100789.16;;;11.45;100.00
44934;BME280;30667;43.614;1.442;2024-02-14T11:14:37;100789.72;;;11.47;100.00
44934;BME280;30667;43.614;1.442;2024-02-14T11:17:13;100776.47;;;11.51;100.00
44934;BME280;30667;43.614;1.442;2024-02-14T11:19:38;100772.91;;;11.50;100.00
44934;BME280;30667;43.614;1.442;2024-02-14T11:22:11;100771.34;;;11.59;100.00
44934;BME280;30667;43.614;1.442;2024-02-14T11:24:40;100770.53;;;11.64;100.00
44934;BME280;30667;43.614;1.442;2024-02-14T11:27:10;100767.63;;;11.76;100.00
44934;BME280;30667;43.614;1.442;2024-02-14T11:29:39;100762.13;;;11.60;100.00
44934;BME280;30667;43.614;1.442;2024-02-14T11:32:06;100755.13;;;11.80;100.00
44934;BME280;30667;43.614;1.442;2024-02-14T11:34:34;100749.44;;;11.76;100.00
44934;BME280;30667;43.614;1.442;2024-02-14T11:36:59;100749.50;;;11.92;100.00
44934;BME280;30667;43.614;1.442;2024-02-14T11:39:27;100743.81;;;11.98;100.00
44934;BME280;30667;43.614;1.442;2024-02-14T11:41:53;100742.16;;;11.87;100.00
44934;BME280;30667;43.614;1.442;2024-02-14T11:44:21;100734.84;;;11.93;100.00
44934;BME280;30667;43.614;1.442;2024-02-14T11:46:51;100733.19;;;11.81;100.00
44934;BME280;30667;43.614;1.442;2024-02-14T11:49:16;100732.94;;;11.93;100.00
44934;BME280;30667;43.614;1.442;2024-02-14T11:51:45;100732.72;;;12.00;100.00
44934;BME280;30667;43.614;1.442;2024-02-14T11:54:10;100724.28;;;12.17;100.00
44934;BME280;30667;43.614;1.442;2024-02-14T11:56:37;100725.13;;;12.23;100.00
44934;BME280;30667;43.614;1.442;2024-02-14T11:59:04;100724.59;;;12.26;100.00
44934;BME280;30667;43.614;1.442;2024-02-14T12:01:31;100722.13;;;12.29;100.00
44934;BME280;30667;43.614;1.442;2024-02-14T12:04:01;100716.44;;;12.15;100.00
44934;BME280;30667;43.614;1.442;2024-02-14T12:06:31;100711.81;;;12.26;100.00
44934;BME280;30667;43.614;1.442;2024-02-14T12:09:00;100707.75;;;12.29;100.00
44934;BME280;30667;43.614;1.442;2024-02-14T12:11:31;100699.88;;;12.48;100.00
44934;BME280;30667;43.614;1.442;2024-02-14T12:14:00;100693.38;;;12.23;100.00
44934;BME280;30667;43.614;1.442;2024-02-14T12:16:26;100693.09;;;12.30;100.00
44934;BME280;30667;43.614;1.442;2024-02-14T12:19:06;100700.72;;;12.17;100.00
44934;BME280;30667;43.614;1.442;2024-02-14T12:21:34;100682.78;;;12.27;100.00
44934;BME280;30667;43.614;1.442;2024-02-14T12:24:00;100680.09;;;12.16;100.00
44934;BME280;30667;43.614;1.442;2024-02-14T12:26:25;100681.72;;;12.23;100.00
44934;BME280;30667;43.614;1.442;2024-02-14T12:28:52;100679.28;;;12.37;100.00
44934;BME280;30667;43.614;1.442;2024-02-14T12:31:22;100665.94;;;12.30;100.00
44934;BME280;30667;43.614;1.442;2024-02-14T12:33:48;100666.22;;;12.44;100.00
44934;BME280;30667;43.614;1.442;2024-02-14T12:36:14;100666.50;;;12.37;100.00
44934;BME280;30667;43.614;1.442;2024-02-14T12:38:39;100668.94;;;12.28;100.00
44934;BME280;30667;43.614;1.442;2024-02-14T12:41:05;100660.81;;;12.23;100.00
44934;BME280;30667;43.614;1.442;2024-02-14T12:43:31;100653.19;;;12.46;100.00
44934;BME280;30667;43.614;1.442;2024-02-14T12:45:56;100645.81;;;12.62;100.00